sensor_id;sensor_type;location;lat;lon;timestamp;P1;durP1;ratioP1;P2;durP2;ratioP2
3547;SDS011;1788;49.400;11.092;2023-04-25T00:00:51;5.93;;;4.23;;
3547;SDS011;1788;49.400;11.092;2023-04-25T00:03:17;5.63;;;4.23;;
3547;SDS011;1788;49.400;11.092;2023-04-25T00:05:44;4.17;;;3.83;;
3547;SDS011;1788;49.400;11.092;2023-04-25T00:08:11;6.00;;;4.10;;
3547;SDS011;1788;49.400;11.092;2023-04-25T00:10:37;6.80;;;4.20;;
3547;SDS011;1788;49.400;11.092;2023-04-25T00:13:04;5.23;;;4.13;;
3547;SDS011;1788;49.400;11.092;2023-04-25T00:15:30;5.07;;;3.80;;
3547;SDS011;1788;49.400;11.092;2023-04-25T00:17:57;4.80;;;3.87;;
3547;SDS011;1788;49.400;11.092;2023-04-25T00:20:24;5.13;;;3.97;;
3547;SDS011;1788;49.400;11.092;2023-04-25T00:22:51;4.87;;;4.13;;
3547;SDS011;1788;49.400;11.092;2023-04-25T00:25:17;4.40;;;3.83;;
3547;SDS011;1788;49.400;11.092;2023-04-25T00:27:45;5.63;;;4.07;;
3547;SDS011;1788;49.400;11.092;2023-04-25T00:30:11;5.13;;;4.00;;
3547;SDS011;1788;49.400;11.092;2023-04-25T00:32:38;5.00;;;3.50;;
3547;SDS011;1788;49.400;11.092;2023-04-25T00:35:05;4.53;;;3.57;;
3547;SDS011;1788;49.400;11.092;2023-04-25T00:37:31;3.97;;;3.80;;
3547;SDS011;1788;49.400;11.092;2023-04-25T00:39:59;4.67;;;3.47;;
3547;SDS011;1788;49.400;11.092;2023-04-25T00:42:25;4.80;;;3.17;;
3547;SDS011;1788;49.400;11.092;2023-04-25T00:44:52;4.17;;;3.60;;
3547;SDS011;1788;49.400;11.092;2023-04-25T00:47:18;4.80;;;3.97;;
3547;SDS011;1788;49.400;11.092;2023-04-25T00:49:45;4.83;;;3.30;;
3547;SDS011;1788;49.400;11.092;2023-04-25T00:52:13;4.77;;;3.33;;
3547;SDS011;1788;49.400;11.092;2023-04-25T00:54:39;3.63;;;3.43;;
3547;SDS011;1788;49.400;11.092;2023-04-25T00:57:07;5.33;;;4.10;;
3547;SDS011;1788;49.400;11.092;2023-04-25T00:59:33;3.37;;;3.20;;
3547;SDS011;1788;49.400;11.092;2023-04-25T01:02:00;5.63;;;3.67;;
3547;SDS011;1788;49.400;11.092;2023-04-25T01:04:27;4.83;;;3.30;;
3547;SDS011;1788;49.400;11.092;2023-04-25T01:06:53;5.63;;;3.50;;
3547;SDS011;1788;49.400;11.092;2023-04-25T01:09:20;3.77;;;2.83;;
3547;SDS011;1788;49.400;11.092;2023-04-25T01:11:46;3.50;;;3.30;;
3547;SDS011;1788;49.400;11.092;2023-04-25T01:14:13;5.00;;;3.17;;
3547;SDS011;1788;49.400;11.092;2023-04-25T01:16:41;3.37;;;3.20;;
3547;SDS011;1788;49.400;11.092;2023-04-25T01:19:09;4.70;;;3.60;;
3547;SDS011;1788;49.400;11.092;2023-04-25T01:21:34;7.07;;;3.50;;
3547;SDS011;1788;49.400;11.092;2023-04-25T01:24:01;3.80;;;3.53;;
3547;SDS011;1788;49.400;11.092;2023-04-25T01:26:27;3.17;;;3.03;;
3547;SDS011;1788;49.400;11.092;2023-04-25T01:28:54;4.83;;;3.20;;
3547;SDS011;1788;49.400;11.092;2023-04-25T01:31:20;4.07;;;3.10;;
3547;SDS011;1788;49.400;11.092;2023-04-25T01:33:47;3.90;;;3.23;;
3547;SDS011;1788;49.400;11.092;2023-04-25T01:36:14;3.70;;;3.50;;
3547;SDS011;1788;49.400;11.092;2023-04-25T01:38:41;3.90;;;3.70;;
3547;SDS011;1788;49.400;11.092;2023-04-25T01:41:08;4.67;;;3.40;;
3547;SDS011;1788;49.400;11.092;2023-04-25T01:43:35;4.53;;;3.70;;
3547;SDS011;1788;49.400;11.092;2023-04-25T01:46:02;4.23;;;3.43;;
3547;SDS011;1788;49.400;11.092;2023-04-25T01:48:28;4.97;;;3.43;;
3547;SDS011;1788;49.400;11.092;2023-04-25T01:50:56;4.27;;;3.00;;
3547;SDS011;1788;49.400;11.092;2023-04-25T01:53:22;5.00;;;3.70;;
3547;SDS011;1788;49.400;11.092;2023-04-25T01:55:49;4.67;;;3.40;;
3547;SDS011;1788;49.400;11.092;2023-04-25T01:58:16;3.33;;;3.10;;
3547;SDS011;1788;49.400;11.092;2023-04-25T02:00:42;4.30;;;3.30;;
3547;SDS011;1788;49.400;11.092;2023-04-25T02:03:10;4.70;;;3.47;;
3547;SDS011;1788;49.400;11.092;2023-04-25T02:05:37;5.20;;;3.57;;
3547;SDS011;1788;49.400;11.092;2023-04-25T02:08:05;4.70;;;3.63;;
3547;SDS011;1788;49.400;11.092;2023-04-25T02:10:30;3.97;;;3.57;;
3547;SDS011;1788;49.400;11.092;2023-04-25T02:12:57;4.50;;;4.20;;
3547;SDS011;1788;49.400;11.092;2023-04-25T02:15:23;6.73;;;4.57;;
3547;SDS011;1788;49.400;11.092;2023-04-25T02:17:50;8.80;;;5.00;;
3547;SDS011;1788;49.400;11.092;2023-04-25T02:20:17;4.43;;;4.17;;
3547;SDS011;1788;49.400;11.092;2023-04-25T02:22:43;7.27;;;4.43;;
3547;SDS011;1788;49.400;11.092;2023-04-25T02:27:36;6.47;;;4.50;;
3547;SDS011;1788;49.400;11.092;2023-04-25T02:30:04;5.43;;;4.13;;
3547;SDS011;1788;49.400;11.092;2023-04-25T02:32:30;5.67;;;4.00;;
3547;SDS011;1788;49.400;11.092;2023-04-25T02:34:57;7.57;;;4.87;;
3547;SDS011;1788;49.400;11.092;2023-04-25T02:37:24;5.87;;;4.23;;
3547;SDS011;1788;49.400;11.092;2023-04-25T02:39:50;4.80;;;4.50;;
3547;SDS011;1788;49.400;11.092;2023-04-25T02:42:17;6.67;;;4.57;;
3547;SDS011;1788;49.400;11.092;2023-04-25T02:44:43;6.00;;;4.30;;
3547;SDS011;1788;49.400;11.092;2023-04-25T02:47:10;6.37;;;4.50;;
3547;SDS011;1788;49.400;11.092;2023-04-25T02:49:37;5.03;;;4.80;;
3547;SDS011;1788;49.400;11.092;2023-04-25T02:52:03;6.90;;;4.47;;
3547;SDS011;1788;49.400;11.092;2023-04-25T02:54:30;7.60;;;5.17;;
3547;SDS011;1788;49.400;11.092;2023-04-25T02:56:57;5.77;;;4.83;;
3547;SDS011;1788;49.400;11.092;2023-04-25T02:59:23;7.83;;;5.50;;
3547;SDS011;1788;49.400;11.092;2023-04-25T03:01:50;5.83;;;4.67;;
3547;SDS011;1788;49.400;11.092;2023-04-25T03:04:16;9.03;;;5.33;;
3547;SDS011;1788;49.400;11.092;2023-04-25T03:06:43;5.47;;;4.60;;
3547;SDS011;1788;49.400;11.092;2023-04-25T03:09:10;8.20;;;5.37;;
3547;SDS011;1788;49.400;11.092;2023-04-25T03:11:37;7.27;;;5.17;;
3547;SDS011;1788;49.400;11.092;2023-04-25T03:14:03;6.47;;;4.97;;
3547;SDS011;1788;49.400;11.092;2023-04-25T03:16:29;5.90;;;4.77;;
3547;SDS011;1788;49.400;11.092;2023-04-25T03:18:56;5.20;;;4.33;;
3547;SDS011;1788;49.400;11.092;2023-04-25T03:21:23;5.13;;;4.00;;
3547;SDS011;1788;49.400;11.092;2023-04-25T03:23:49;8.17;;;4.30;;
3547;SDS011;1788;49.400;11.092;2023-04-25T03:26:16;6.70;;;4.57;;
3547;SDS011;1788;49.400;11.092;2023-04-25T03:28:42;5.67;;;4.20;;
3547;SDS011;1788;49.400;11.092;2023-04-25T03:31:09;6.77;;;4.77;;
3547;SDS011;1788;49.400;11.092;2023-04-25T03:33:36;8.40;;;5.07;;
3547;SDS011;1788;49.400;11.092;2023-04-25T03:36:02;5.47;;;4.43;;
3547;SDS011;1788;49.400;11.092;2023-04-25T03:38:29;7.33;;;4.77;;
3547;SDS011;1788;49.400;11.092;2023-04-25T03:40:56;5.63;;;5.00;;
3547;SDS011;1788;49.400;11.092;2023-04-25T03:43:22;6.20;;;4.70;;
3547;SDS011;1788;49.400;11.092;2023-04-25T03:45:49;6.83;;;4.80;;
3547;SDS011;1788;49.400;11.092;2023-04-25T03:48:15;5.80;;;4.33;;
3547;SDS011;1788;49.400;11.092;2023-04-25T03:50:42;6.07;;;4.93;;
3547;SDS011;1788;49.400;11.092;2023-04-25T03:53:09;7.43;;;4.90;;
3547;SDS011;1788;49.400;11.092;2023-04-25T03:55:35;7.70;;;5.03;;
3547;SDS011;1788;49.400;11.092;2023-04-25T03:58:02;5.37;;;4.93;;
3547;SDS011;1788;49.400;11.092;2023-04-25T04:00:28;8.83;;;5.57;;
3547;SDS011;1788;49.400;11.092;2023-04-25T04:02:55;6.77;;;5.20;;
3547;SDS011;1788;49.400;11.092;2023-04-25T04:05:22;9.10;;;6.07;;
3547;SDS011;1788;49.400;11.092;2023-04-25T04:07:48;7.60;;;5.13;;
3547;SDS011;1788;49.400;11.092;2023-04-25T04:10:15;5.43;;;4.77;;
3547;SDS011;1788;49.400;11.092;2023-04-25T04:12:41;5.73;;;4.17;;
3547;SDS011;1788;49.400;11.092;2023-04-25T04:15:08;5.57;;;4.47;;
3547;SDS011;1788;49.400;11.092;2023-04-25T04:17:35;8.23;;;4.70;;
3547;SDS011;1788;49.400;11.092;2023-04-25T04:20:01;5.17;;;4.70;;
3547;SDS011;1788;49.400;11.092;2023-04-25T04:22:28;8.67;;;4.73;;
3547;SDS011;1788;49.400;11.092;2023-04-25T04:24:55;6.87;;;4.37;;
3547;SDS011;1788;49.400;11.092;2023-04-25T04:27:21;7.27;;;4.27;;
3547;SDS011;1788;49.400;11.092;2023-04-25T04:29:48;7.37;;;4.27;;
3547;SDS011;1788;49.400;11.092;2023-04-25T04:32:15;6.37;;;4.50;;
3547;SDS011;1788;49.400;11.092;2023-04-25T04:34:41;6.97;;;4.83;;
3547;SDS011;1788;49.400;11.092;2023-04-25T04:37:08;4.30;;;4.00;;
3547;SDS011;1788;49.400;11.092;2023-04-25T04:39:34;5.27;;;4.30;;
3547;SDS011;1788;49.400;11.092;2023-04-25T04:42:01;6.53;;;4.20;;
3547;SDS011;1788;49.400;11.092;2023-04-25T04:44:29;5.60;;;4.43;;
3547;SDS011;1788;49.400;11.092;2023-04-25T04:46:55;4.93;;;4.43;;
3547;SDS011;1788;49.400;11.092;2023-04-25T04:49:21;7.50;;;4.67;;
3547;SDS011;1788;49.400;11.092;2023-04-25T04:51:48;4.30;;;4.00;;
3547;SDS011;1788;49.400;11.092;2023-04-25T04:54:14;8.50;;;4.67;;
3547;SDS011;1788;49.400;11.092;2023-04-25T04:56:41;5.70;;;4.47;;
3547;SDS011;1788;49.400;11.092;2023-04-25T04:59:08;5.80;;;4.50;;
3547;SDS011;1788;49.400;11.092;2023-04-25T05:01:34;6.70;;;4.57;;
3547;SDS011;1788;49.400;11.092;2023-04-25T05:04:01;6.30;;;4.40;;
3547;SDS011;1788;49.400;11.092;2023-04-25T05:06:27;6.53;;;4.73;;
3547;SDS011;1788;49.400;11.092;2023-04-25T05:08:54;10.47;;;5.57;;
3547;SDS011;1788;49.400;11.092;2023-04-25T05:11:22;9.63;;;5.77;;
3547;SDS011;1788;49.400;11.092;2023-04-25T05:13:49;7.87;;;5.50;;
3547;SDS011;1788;49.400;11.092;2023-04-25T05:16:14;7.37;;;5.03;;
3547;SDS011;1788;49.400;11.092;2023-04-25T05:18:41;5.43;;;5.17;;
3547;SDS011;1788;49.400;11.092;2023-04-25T05:21:08;7.60;;;5.40;;
3547;SDS011;1788;49.400;11.092;2023-04-25T05:23:34;6.93;;;5.43;;
3547;SDS011;1788;49.400;11.092;2023-04-25T05:26:01;8.47;;;5.70;;
3547;SDS011;1788;49.400;11.092;2023-04-25T05:28:27;9.40;;;5.77;;
3547;SDS011;1788;49.400;11.092;2023-04-25T05:30:55;7.90;;;5.47;;
3547;SDS011;1788;49.400;11.092;2023-04-25T05:33:21;9.80;;;6.60;;
3547;SDS011;1788;49.400;11.092;2023-04-25T05:35:48;10.40;;;5.90;;
3547;SDS011;1788;49.400;11.092;2023-04-25T05:38:15;9.93;;;6.20;;
3547;SDS011;1788;49.400;11.092;2023-04-25T05:40:41;9.07;;;6.53;;
3547;SDS011;1788;49.400;11.092;2023-04-25T05:43:09;9.40;;;6.40;;
3547;SDS011;1788;49.400;11.092;2023-04-25T05:45:35;10.27;;;6.27;;
3547;SDS011;1788;49.400;11.092;2023-04-25T05:48:02;8.23;;;6.03;;
3547;SDS011;1788;49.400;11.092;2023-04-25T05:50:28;9.13;;;6.63;;
3547;SDS011;1788;49.400;11.092;2023-04-25T05:52:55;8.27;;;6.50;;
3547;SDS011;1788;49.400;11.092;2023-04-25T05:55:22;8.30;;;6.43;;
3547;SDS011;1788;49.400;11.092;2023-04-25T05:57:48;11.30;;;7.03;;
3547;SDS011;1788;49.400;11.092;2023-04-25T06:00:15;11.70;;;6.50;;
3547;SDS011;1788;49.400;11.092;2023-04-25T06:02:42;11.60;;;7.03;;
3547;SDS011;1788;49.400;11.092;2023-04-25T06:05:09;9.40;;;6.50;;
3547;SDS011;1788;49.400;11.092;2023-04-25T06:07:36;8.17;;;6.23;;
3547;SDS011;1788;49.400;11.092;2023-04-25T06:10:02;9.20;;;6.67;;
3547;SDS011;1788;49.400;11.092;2023-04-25T06:12:30;11.40;;;6.40;;
3547;SDS011;1788;49.400;11.092;2023-04-25T06:14:56;7.97;;;6.40;;
3547;SDS011;1788;49.400;11.092;2023-04-25T06:17:24;12.13;;;7.33;;
3547;SDS011;1788;49.400;11.092;2023-04-25T06:19:51;13.43;;;8.33;;
3547;SDS011;1788;49.400;11.092;2023-04-25T06:22:18;14.23;;;7.63;;
3547;SDS011;1788;49.400;11.092;2023-04-25T06:24:45;10.43;;;7.30;;
3547;SDS011;1788;49.400;11.092;2023-04-25T06:27:12;11.87;;;6.83;;
3547;SDS011;1788;49.400;11.092;2023-04-25T06:29:39;11.13;;;6.30;;
3547;SDS011;1788;49.400;11.092;2023-04-25T06:32:06;10.20;;;5.87;;
3547;SDS011;1788;49.400;11.092;2023-04-25T06:34:32;10.03;;;6.73;;
3547;SDS011;1788;49.400;11.092;2023-04-25T06:36:59;7.37;;;6.30;;
3547;SDS011;1788;49.400;11.092;2023-04-25T06:39:25;8.87;;;5.67;;
3547;SDS011;1788;49.400;11.092;2023-04-25T06:41:52;12.43;;;6.60;;
3547;SDS011;1788;49.400;11.092;2023-04-25T06:44:19;12.80;;;6.60;;
3547;SDS011;1788;49.400;11.092;2023-04-25T06:46:46;7.47;;;5.53;;
3547;SDS011;1788;49.400;11.092;2023-04-25T06:49:13;8.57;;;6.63;;
3547;SDS011;1788;49.400;11.092;2023-04-25T06:51:40;11.67;;;6.77;;
3547;SDS011;1788;49.400;11.092;2023-04-25T06:54:06;11.83;;;6.60;;
3547;SDS011;1788;49.400;11.092;2023-04-25T06:56:33;9.90;;;6.13;;
3547;SDS011;1788;49.400;11.092;2023-04-25T06:59:00;9.83;;;6.00;;
3547;SDS011;1788;49.400;11.092;2023-04-25T07:01:26;9.67;;;6.03;;
3547;SDS011;1788;49.400;11.092;2023-04-25T07:03:53;8.87;;;5.73;;
3547;SDS011;1788;49.400;11.092;2023-04-25T07:06:20;8.20;;;6.00;;
3547;SDS011;1788;49.400;11.092;2023-04-25T07:08:46;5.97;;;5.60;;
3547;SDS011;1788;49.400;11.092;2023-04-25T07:11:13;8.80;;;6.47;;
3547;SDS011;1788;49.400;11.092;2023-04-25T07:13:40;8.77;;;6.70;;
3547;SDS011;1788;49.400;11.092;2023-04-25T07:16:07;11.53;;;6.70;;
3547;SDS011;1788;49.400;11.092;2023-04-25T07:18:34;10.40;;;6.47;;
3547;SDS011;1788;49.400;11.092;2023-04-25T07:21:01;8.50;;;5.93;;
3547;SDS011;1788;49.400;11.092;2023-04-25T07:23:28;12.03;;;6.80;;
3547;SDS011;1788;49.400;11.092;2023-04-25T07:25:54;6.67;;;4.93;;
3547;SDS011;1788;49.400;11.092;2023-04-25T07:28:21;8.13;;;5.90;;
3547;SDS011;1788;49.400;11.092;2023-04-25T07:30:49;15.23;;;9.33;;
3547;SDS011;1788;49.400;11.092;2023-04-25T07:33:16;10.73;;;9.50;;
3547;SDS011;1788;49.400;11.092;2023-04-25T07:35:43;7.73;;;6.03;;
3547;SDS011;1788;49.400;11.092;2023-04-25T07:38:09;10.73;;;7.10;;
3547;SDS011;1788;49.400;11.092;2023-04-25T07:40:36;7.10;;;5.47;;
3547;SDS011;1788;49.400;11.092;2023-04-25T07:43:03;8.47;;;6.70;;
3547;SDS011;1788;49.400;11.092;2023-04-25T07:45:30;6.17;;;5.43;;
3547;SDS011;1788;49.400;11.092;2023-04-25T07:47:57;6.60;;;5.23;;
3547;SDS011;1788;49.400;11.092;2023-04-25T07:50:24;7.77;;;5.13;;
3547;SDS011;1788;49.400;11.092;2023-04-25T07:52:51;6.73;;;5.80;;
3547;SDS011;1788;49.400;11.092;2023-04-25T07:55:17;7.30;;;6.27;;
3547;SDS011;1788;49.400;11.092;2023-04-25T07:57:44;7.20;;;4.70;;
3547;SDS011;1788;49.400;11.092;2023-04-25T08:02:39;7.33;;;5.17;;
3547;SDS011;1788;49.400;11.092;2023-04-25T08:05:05;5.07;;;4.53;;
3547;SDS011;1788;49.400;11.092;2023-04-25T08:07:32;8.13;;;4.70;;
3547;SDS011;1788;49.400;11.092;2023-04-25T08:10:00;6.67;;;5.30;;
3547;SDS011;1788;49.400;11.092;2023-04-25T08:12:26;5.90;;;4.80;;
3547;SDS011;1788;49.400;11.092;2023-04-25T08:14:53;4.67;;;4.37;;
3547;SDS011;1788;49.400;11.092;2023-04-25T08:17:20;13.73;;;11.57;;
3547;SDS011;1788;49.400;11.092;2023-04-25T08:19:47;10.30;;;9.33;;
3547;SDS011;1788;49.400;11.092;2023-04-25T08:22:14;8.33;;;6.10;;
3547;SDS011;1788;49.400;11.092;2023-04-25T08:24:41;5.50;;;4.67;;
3547;SDS011;1788;49.400;11.092;2023-04-25T08:27:11;10.63;;;8.37;;
3547;SDS011;1788;49.400;11.092;2023-04-25T08:29:38;4.13;;;3.80;;
3547;SDS011;1788;49.400;11.092;2023-04-25T08:32:04;7.63;;;4.47;;
3547;SDS011;1788;49.400;11.092;2023-04-25T08:34:31;9.10;;;4.93;;
3547;SDS011;1788;49.400;11.092;2023-04-25T08:36:58;3.93;;;3.43;;
3547;SDS011;1788;49.400;11.092;2023-04-25T08:39:24;6.07;;;3.77;;
3547;SDS011;1788;49.400;11.092;2023-04-25T08:41:52;7.37;;;4.80;;
3547;SDS011;1788;49.400;11.092;2023-04-25T08:44:19;6.07;;;4.57;;
3547;SDS011;1788;49.400;11.092;2023-04-25T08:46:45;6.13;;;4.17;;
3547;SDS011;1788;49.400;11.092;2023-04-25T08:49:14;5.43;;;4.17;;
3547;SDS011;1788;49.400;11.092;2023-04-25T08:51:43;7.07;;;4.00;;
3547;SDS011;1788;49.400;11.092;2023-04-25T08:56:33;7.37;;;4.40;;
3547;SDS011;1788;49.400;11.092;2023-04-25T08:59:01;5.37;;;4.40;;
3547;SDS011;1788;49.400;11.092;2023-04-25T09:01:27;5.07;;;4.33;;
3547;SDS011;1788;49.400;11.092;2023-04-25T09:03:54;3.93;;;3.73;;
3547;SDS011;1788;49.400;11.092;2023-04-25T09:06:21;5.60;;;3.93;;
3547;SDS011;1788;49.400;11.092;2023-04-25T09:08:49;4.20;;;3.93;;
3547;SDS011;1788;49.400;11.092;2023-04-25T09:11:15;3.87;;;3.70;;
3547;SDS011;1788;49.400;11.092;2023-04-25T09:13:42;4.63;;;4.03;;
3547;SDS011;1788;49.400;11.092;2023-04-25T09:16:09;5.40;;;4.63;;
3547;SDS011;1788;49.400;11.092;2023-04-25T09:18:37;4.80;;;3.73;;
3547;SDS011;1788;49.400;11.092;2023-04-25T09:23:29;9.57;;;4.90;;
3547;SDS011;1788;49.400;11.092;2023-04-25T09:25:56;6.67;;;5.53;;
3547;SDS011;1788;49.400;11.092;2023-04-25T09:28:26;7.67;;;5.87;;
3547;SDS011;1788;49.400;11.092;2023-04-25T09:33:20;4.23;;;3.83;;
3547;SDS011;1788;49.400;11.092;2023-04-25T09:35:48;6.07;;;4.83;;
3547;SDS011;1788;49.400;11.092;2023-04-25T09:38:14;7.63;;;5.33;;
3547;SDS011;1788;49.400;11.092;2023-04-25T09:40:42;5.50;;;4.03;;
3547;SDS011;1788;49.400;11.092;2023-04-25T09:43:10;5.20;;;4.27;;
3547;SDS011;1788;49.400;11.092;2023-04-25T09:48:03;7.40;;;5.40;;
3547;SDS011;1788;49.400;11.092;2023-04-25T09:50:29;8.90;;;5.70;;
3547;SDS011;1788;49.400;11.092;2023-04-25T09:55:23;6.90;;;5.60;;
3547;SDS011;1788;49.400;11.092;2023-04-25T09:57:49;7.40;;;5.40;;
3547;SDS011;1788;49.400;11.092;2023-04-25T10:00:16;5.37;;;5.07;;
3547;SDS011;1788;49.400;11.092;2023-04-25T10:02:43;9.00;;;5.07;;
3547;SDS011;1788;49.400;11.092;2023-04-25T10:05:11;5.83;;;5.03;;
3547;SDS011;1788;49.400;11.092;2023-04-25T10:07:37;6.17;;;5.13;;
3547;SDS011;1788;49.400;11.092;2023-04-25T10:10:05;8.63;;;5.47;;
3547;SDS011;1788;49.400;11.092;2023-04-25T10:12:32;7.83;;;5.07;;
3547;SDS011;1788;49.400;11.092;2023-04-25T10:14:59;7.23;;;4.87;;
3547;SDS011;1788;49.400;11.092;2023-04-25T10:19:53;6.57;;;5.70;;
3547;SDS011;1788;49.400;11.092;2023-04-25T10:24:47;6.73;;;5.33;;
3547;SDS011;1788;49.400;11.092;2023-04-25T10:27:13;7.40;;;4.70;;
3547;SDS011;1788;49.400;11.092;2023-04-25T10:29:40;6.73;;;4.87;;
3547;SDS011;1788;49.400;11.092;2023-04-25T10:32:07;8.40;;;5.40;;
3547;SDS011;1788;49.400;11.092;2023-04-25T10:37:00;8.23;;;5.60;;
3547;SDS011;1788;49.400;11.092;2023-04-25T10:39:28;7.93;;;4.97;;
3547;SDS011;1788;49.400;11.092;2023-04-25T10:44:22;4.30;;;3.97;;
3547;SDS011;1788;49.400;11.092;2023-04-25T10:46:48;5.77;;;3.87;;
3547;SDS011;1788;49.400;11.092;2023-04-25T10:51:42;8.00;;;4.10;;
3547;SDS011;1788;49.400;11.092;2023-04-25T10:54:08;4.83;;;3.80;;
3547;SDS011;1788;49.400;11.092;2023-04-25T10:56:37;5.20;;;3.40;;
3547;SDS011;1788;49.400;11.092;2023-04-25T11:01:35;5.00;;;3.87;;
3547;SDS011;1788;49.400;11.092;2023-04-25T11:03:57;5.20;;;2.90;;
3547;SDS011;1788;49.400;11.092;2023-04-25T11:06:23;6.03;;;3.13;;
3547;SDS011;1788;49.400;11.092;2023-04-25T11:08:50;3.60;;;2.77;;
3547;SDS011;1788;49.400;11.092;2023-04-25T11:11:17;2.77;;;2.60;;
3547;SDS011;1788;49.400;11.092;2023-04-25T11:13:43;3.40;;;2.60;;
3547;SDS011;1788;49.400;11.092;2023-04-25T11:16:10;2.57;;;1.90;;
3547;SDS011;1788;49.400;11.092;2023-04-25T11:18:36;2.43;;;2.23;;
3547;SDS011;1788;49.400;11.092;2023-04-25T11:21:04;2.07;;;1.93;;
3547;SDS011;1788;49.400;11.092;2023-04-25T11:23:30;1.93;;;1.83;;
3547;SDS011;1788;49.400;11.092;2023-04-25T11:25:57;2.77;;;2.50;;
3547;SDS011;1788;49.400;11.092;2023-04-25T11:28:25;3.57;;;2.37;;
3547;SDS011;1788;49.400;11.092;2023-04-25T11:30:53;3.30;;;2.10;;
3547;SDS011;1788;49.400;11.092;2023-04-25T11:35:47;4.03;;;2.50;;
3547;SDS011;1788;49.400;11.092;2023-04-25T11:38:14;4.43;;;2.00;;
3547;SDS011;1788;49.400;11.092;2023-04-25T11:40:42;2.23;;;2.07;;
3547;SDS011;1788;49.400;11.092;2023-04-25T11:43:09;3.13;;;1.73;;
3547;SDS011;1788;49.400;11.092;2023-04-25T11:45:36;2.53;;;1.20;;
3547;SDS011;1788;49.400;11.092;2023-04-25T11:48:03;1.13;;;1.03;;
3547;SDS011;1788;49.400;11.092;2023-04-25T11:50:30;1.53;;;1.20;;
3547;SDS011;1788;49.400;11.092;2023-04-25T11:52:57;2.70;;;1.60;;
3547;SDS011;1788;49.400;11.092;2023-04-25T11:55:25;2.20;;;2.00;;
3547;SDS011;1788;49.400;11.092;2023-04-25T11:57:51;1.70;;;1.60;;
3547;SDS011;1788;49.400;11.092;2023-04-25T12:00:19;1.90;;;1.43;;
3547;SDS011;1788;49.400;11.092;2023-04-25T12:02:46;2.20;;;1.60;;
3547;SDS011;1788;49.400;11.092;2023-04-25T12:05:12;1.60;;;1.50;;
3547;SDS011;1788;49.400;11.092;2023-04-25T12:07:38;1.63;;;1.57;;
3547;SDS011;1788;49.400;11.092;2023-04-25T12:10:06;3.33;;;1.83;;
3547;SDS011;1788;49.400;11.092;2023-04-25T12:12:32;2.33;;;1.60;;
3547;SDS011;1788;49.400;11.092;2023-04-25T12:15:07;1.47;;;1.37;;
3547;SDS011;1788;49.400;11.092;2023-04-25T12:17:26;1.90;;;1.73;;
3547;SDS011;1788;49.400;11.092;2023-04-25T12:19:52;2.17;;;1.23;;
3547;SDS011;1788;49.400;11.092;2023-04-25T12:22:20;1.77;;;1.33;;
3547;SDS011;1788;49.400;11.092;2023-04-25T12:24:46;1.60;;;1.10;;
3547;SDS011;1788;49.400;11.092;2023-04-25T12:27:14;2.70;;;1.47;;
3547;SDS011;1788;49.400;11.092;2023-04-25T12:29:40;1.87;;;1.40;;
3547;SDS011;1788;49.400;11.092;2023-04-25T12:32:07;1.97;;;1.37;;
3547;SDS011;1788;49.400;11.092;2023-04-25T12:34:33;1.73;;;1.40;;
3547;SDS011;1788;49.400;11.092;2023-04-25T12:37:01;1.83;;;1.23;;
3547;SDS011;1788;49.400;11.092;2023-04-25T12:39:28;2.03;;;1.50;;
3547;SDS011;1788;49.400;11.092;2023-04-25T12:41:55;1.60;;;1.50;;
3547;SDS011;1788;49.400;11.092;2023-04-25T12:44:21;2.20;;;1.90;;
3547;SDS011;1788;49.400;11.092;2023-04-25T12:46:49;1.90;;;1.80;;
3547;SDS011;1788;49.400;11.092;2023-04-25T12:49:15;1.70;;;1.60;;
3547;SDS011;1788;49.400;11.092;2023-04-25T12:51:43;2.53;;;1.87;;
3547;SDS011;1788;49.400;11.092;2023-04-25T12:54:10;2.33;;;1.93;;
3547;SDS011;1788;49.400;11.092;2023-04-25T12:56:37;1.50;;;1.40;;
3547;SDS011;1788;49.400;11.092;2023-04-25T12:59:03;3.50;;;1.70;;
3547;SDS011;1788;49.400;11.092;2023-04-25T13:01:30;2.20;;;1.57;;
3547;SDS011;1788;49.400;11.092;2023-04-25T13:03:56;2.00;;;1.70;;
3547;SDS011;1788;49.400;11.092;2023-04-25T13:06:24;2.57;;;2.10;;
3547;SDS011;1788;49.400;11.092;2023-04-25T13:08:50;1.87;;;1.73;;
3547;SDS011;1788;49.400;11.092;2023-04-25T13:11:18;3.43;;;1.57;;
3547;SDS011;1788;49.400;11.092;2023-04-25T13:13:44;2.43;;;1.90;;
3547;SDS011;1788;49.400;11.092;2023-04-25T13:16:11;1.93;;;1.83;;
3547;SDS011;1788;49.400;11.092;2023-04-25T13:18:38;2.27;;;1.60;;
3547;SDS011;1788;49.400;11.092;2023-04-25T13:21:04;3.23;;;1.90;;
3547;SDS011;1788;49.400;11.092;2023-04-25T13:23:32;3.37;;;1.83;;
3547;SDS011;1788;49.400;11.092;2023-04-25T13:25:58;2.63;;;1.83;;
3547;SDS011;1788;49.400;11.092;2023-04-25T13:28:26;4.10;;;2.20;;
3547;SDS011;1788;49.400;11.092;2023-04-25T13:30:52;1.67;;;1.57;;
3547;SDS011;1788;49.400;11.092;2023-04-25T13:33:20;3.40;;;2.23;;
3547;SDS011;1788;49.400;11.092;2023-04-25T13:35:48;2.87;;;1.93;;
3547;SDS011;1788;49.400;11.092;2023-04-25T13:38:14;1.93;;;1.83;;
3547;SDS011;1788;49.400;11.092;2023-04-25T13:43:13;2.20;;;2.00;;
3547;SDS011;1788;49.400;11.092;2023-04-25T13:45:40;2.40;;;2.00;;
3547;SDS011;1788;49.400;11.092;2023-04-25T13:48:07;3.53;;;2.10;;
3547;SDS011;1788;49.400;11.092;2023-04-25T13:50:35;2.20;;;2.07;;
3547;SDS011;1788;49.400;11.092;2023-04-25T13:53:02;2.23;;;1.90;;
3547;SDS011;1788;49.400;11.092;2023-04-25T13:55:29;3.60;;;2.23;;
3547;SDS011;1788;49.400;11.092;2023-04-25T13:57:57;2.23;;;2.03;;
3547;SDS011;1788;49.400;11.092;2023-04-25T14:00:23;3.47;;;2.23;;
3547;SDS011;1788;49.400;11.092;2023-04-25T14:02:50;4.33;;;2.27;;
3547;SDS011;1788;49.400;11.092;2023-04-25T14:05:16;4.17;;;2.33;;
3547;SDS011;1788;49.400;11.092;2023-04-25T14:07:43;3.07;;;2.33;;
3547;SDS011;1788;49.400;11.092;2023-04-25T14:10:10;2.87;;;2.10;;
3547;SDS011;1788;49.400;11.092;2023-04-25T14:12:37;2.00;;;1.80;;
3547;SDS011;1788;49.400;11.092;2023-04-25T14:17:30;3.43;;;2.37;;
3547;SDS011;1788;49.400;11.092;2023-04-25T14:19:57;4.27;;;2.37;;
3547;SDS011;1788;49.400;11.092;2023-04-25T14:22:23;3.93;;;2.17;;
3547;SDS011;1788;49.400;11.092;2023-04-25T14:24:51;2.63;;;2.43;;
3547;SDS011;1788;49.400;11.092;2023-04-25T14:27:18;3.77;;;2.60;;
3547;SDS011;1788;49.400;11.092;2023-04-25T14:29:44;3.33;;;2.40;;
3547;SDS011;1788;49.400;11.092;2023-04-25T14:32:11;2.60;;;2.40;;
3547;SDS011;1788;49.400;11.092;2023-04-25T14:34:38;2.87;;;2.57;;
3547;SDS011;1788;49.400;11.092;2023-04-25T14:37:05;3.37;;;2.60;;
3547;SDS011;1788;49.400;11.092;2023-04-25T14:39:33;3.90;;;2.70;;
3547;SDS011;1788;49.400;11.092;2023-04-25T14:42:00;3.83;;;2.60;;
3547;SDS011;1788;49.400;11.092;2023-04-25T14:44:27;4.60;;;2.70;;
3547;SDS011;1788;49.400;11.092;2023-04-25T14:46:54;2.47;;;2.27;;
3547;SDS011;1788;49.400;11.092;2023-04-25T14:49:21;5.07;;;2.90;;
3547;SDS011;1788;49.400;11.092;2023-04-25T14:51:47;3.33;;;2.67;;
3547;SDS011;1788;49.400;11.092;2023-04-25T14:54:14;3.77;;;2.80;;
3547;SDS011;1788;49.400;11.092;2023-04-25T14:56:40;3.17;;;2.77;;
3547;SDS011;1788;49.400;11.092;2023-04-25T14:59:08;4.37;;;2.70;;
3547;SDS011;1788;49.400;11.092;2023-04-25T15:01:34;3.20;;;2.37;;
3547;SDS011;1788;49.400;11.092;2023-04-25T15:04:02;2.90;;;2.47;;
3547;SDS011;1788;49.400;11.092;2023-04-25T15:06:28;4.13;;;2.70;;
3547;SDS011;1788;49.400;11.092;2023-04-25T15:08:55;4.77;;;2.73;;
3547;SDS011;1788;49.400;11.092;2023-04-25T15:11:22;5.50;;;2.90;;
3547;SDS011;1788;49.400;11.092;2023-04-25T15:13:48;4.13;;;3.33;;
3547;SDS011;1788;49.400;11.092;2023-04-25T15:16:15;7.30;;;3.47;;
3547;SDS011;1788;49.400;11.092;2023-04-25T15:18:41;3.90;;;2.93;;
3547;SDS011;1788;49.400;11.092;2023-04-25T15:21:09;4.97;;;2.70;;
3547;SDS011;1788;49.400;11.092;2023-04-25T15:23:35;4.27;;;3.13;;
3547;SDS011;1788;49.400;11.092;2023-04-25T15:26:02;4.50;;;2.63;;
3547;SDS011;1788;49.400;11.092;2023-04-25T15:28:29;3.27;;;2.67;;
3547;SDS011;1788;49.400;11.092;2023-04-25T15:30:55;3.63;;;2.83;;
3547;SDS011;1788;49.400;11.092;2023-04-25T15:33:22;4.17;;;3.23;;
3547;SDS011;1788;49.400;11.092;2023-04-25T15:35:48;4.57;;;3.20;;